Corral, ID (83322)

4:39 AM MDT on September 18, 2014 (GMT -0600)
RAWS DEER HAVEN ID US | Change Station
CLOSE
Current Station
Personal Weather Station
Location: Hill City, ID
Elevation: 5535 ft
Nearby Weather Stations

Elev 5535 ft 43.17 °N, 115.15 °W | Updated 55 minutes ago

Mostly Cloudy
Mostly Cloudy
66 °F
Feels Like 66 °F
N
7
Wind Variable Wind from ENE
Gusts 17.0 mph

Today
High -- | Low -- °F
--% Chance of Precip.
Yesterday
High -- | Low -- °F
Precip. -- in
7:22 AM 7:44 PM
Waning Crescent, 28% visible
Pressure 29.93 in
Visibility 10.0 miles
Clouds Overcast 11000 ft
Dew Point 45 °F
Humidity 47%
Rainfall 0.00 in
Snow Depth 1 in , 0 in , 0 in
UV 0 out of 12
Pollen 8.00 out of 12
Air Quality Not available.
Flu Activity Not available.
METAR KSUN 181015Z AUTO 32009KT 10SM VCTS OVC110 15/06 A2993 RMK AO2 LTG DSNT E SE AND W

More Conditions Fewer Conditions

Pressure 29.93 in
Visibility 10.0 miles
Clouds Overcast 11000 ft
Dew Point 45 °F
Humidity 47%
Rainfall 0.00 in
Snow Depth 1 in , 0 in , 0 in
UV 0 out of 12
Pollen 8.00 out of 12
Air Quality Not available.
Flu Activity Not available.
METAR KSUN 181015Z AUTO 32009KT 10SM VCTS OVC110 15/06 A2993 RMK AO2 LTG DSNT E SE AND W

More Conditions Fewer Conditions

10-Day Weather Forecast

Almanac

Astronomy

Sep. 18, 2014 Rise Set
Actual Time 7:22 AM MDT 7:44 PM MDT
Civil Twilight 6:54 AM MDT 8:13 PM MDT
Nautical Twilight 6:20 AM MDT 8:46 PM MDT
Astronomical Twilight 5:46 AM MDT 9:21 PM MDT
Moon 2:11 AM MDT 4:44 PM MDT
Length of Visible Light 13h 18m
Length of Day
12h 21m
Tomorrow will be 2m 56s shorter.
Waning Crescent, 28% of the Moon is Illuminated
Today
Waning Crescent
Sep 24
New
Oct 1
First Quarter
Oct 8
Full
Oct 15
Last Quarter

Today's Extremes

State Highs State Lows

Community

WunderPhotos

Upload Photos

1,754,314 photos uploaded!

Nearby

Snow Depth

Station Depth Elevation
Somsen Ranch 1 in 6800 ft
Galena Summit 0 in 8780 ft
Wilson Creek 0 in 7120 ft
Schweitzer Basin 0 in 6090 ft
Hidden Lake 0 in 5040 ft

Earthquake Activity

City Distance Mag. Time & Date
No recent earthquake activity has been reported nearby.
Minimum magnitude displayed is 2.5.

Coastal Water Temperatures

Place Temperature
No Stations Reporting

Nearby Weather Stations